Huvudsida
METAR-TAF:

METAR-TAF

Flygplatser :

Lamezia Termes internationella flygplats

Lamezia Terme, Italien

latitud: 38-54N, longitud: 016-15E, höjd: 15 m

Aktuellt väderrapport

Denna rapport gjordes för 1 timme och 15 minuter sedan, klockan 12:50 UTC
Vind 11 kt från väst
Temperatur 29°C
Fuktighet 62%
Tryck 1015 hPa
Sikt 10 km eller mer
Få moln på en höjd av 3000 ft

METAR: LICA 241250Z 26011KT 9999 FEW030 29/21 Q1015

Tid: 16:05 (14:05 UTC)

Väderprognos

Denna rapport gjordes för 3 timmar och 5 minuter sedan, klockan 11:00 UTC
Prognos gäller från 24 kl. 12 UTC till 25 kl. 12 UTC
Vind 10 kt från väst
Sikt 10 km eller mer
Spridda moln på en höjd av 2500 ft
Blir
från 24 kl. 20 UTC till 24 kl. 22 UTC
Vind 5 kt varierande vindriktning
Blir
från 25 kl. 10 UTC till 25 kl. 12 UTC
Vind 10 kt från väst

TAF: LICA 241100Z 2412/2512 28010KT 9999 SCT025 BECMG 2420/2422 VRB05KT BECMG 2510/2512 27010KT

Aktuella väderrapporter och prognoser från 4000 flygplatser (METAR- och TAF-rapporter).

De tillgängliga stationerna syns som gula och röda prickar på kartan.

För musen över prickarna för att se namnen på stationerna.

Klicka sedan för att få väderrapporter och prognoser.

För att ändra kartan: Klicka på de gröna knapparna med ett svart kors på för att zooma in; den gröna knappen med ett streck på för att zooma ut; eller på de gröna pilarna för angränsande kartor.


METAR-TAF: